Eastpointe, Michigan
Current Conditions -  °F | °C
As of 7:53 PM on Monday 20 Oct 2014 (Local Time) from KDET Reporting Station
Overcast Overcast  
Wind Chill: 57°   Ceiling: 3600
Heat Index: 57°   Visibility: 10mi
Dew Point: 48°   Wind: 0mph
Humidity: 72%   Direction: NA
Pressure: 29.82"   Gusts: NA
Location:  42.47°N, 82.96°W
Report Text: KDET 202353Z 00000KT 10SM OVC036 14/09 A2982 RMK AO2 SLP100 60001 T01390089 10150 20139 53013
Loading
Personal Weather Stations






























Interactive Weather Map
Tropical Storm Tracking
New forecast layout! Learn more

10-Day Weather Forecast

Advertisements
Track Severe Weather on mobile